Terminal Aerodrome Forecast
Issued by NWS

Home | Current Version | Previous Version | Text Only | Print | Product List | Glossary On
Versions: 1 2 3 4 5 6 7 8 9 10 11 12 13 14 15
000
FTUS44 KTSA 261700
TAFBVO
TAF
KBVO 261725Z 2618/2718 18013KT P6SM BKN025 BKN200
     FM270000 18008KT 3SM -DZ OVC015
      TEMPO 2701/2705 2SM -RADZ OVC007
     FM270600 32010KT P6SM OVC030
     FM270900 32010KT P6SM OVC050=

USA.gov is the U.S. government's official web portal to all federal, state and local government web resources and services.